Andover, NJ

1:36 PM EDT on July 06, 2015 (GMT -0400)
Lake Mohawk, Hillside/Springbrook | | Change Station
CLOSE
Current Station
Personal Weather Station
Location: Sparta Township, NJ
Elevation: 869 ft
Nearby Weather Stations

Elev 869 ft 41.01 °N, 74.66 °W | Updated 12 seconds ago

Mostly Cloudy
Mostly Cloudy
79.3 °F
Feels Like 82 °F
N
0.0
Wind Variable Wind from NNE
Gusts 0.0 mph

Today
High -- | Low -- °F
--% Chance of Precip.
Yesterday
High -- | Low -- °F
Precip. -- in
5:33 AM 8:33 PM
Waning Gibbous, 74% visible
Pressure 30.16 in
Visibility 10.0 miles
Clouds Few 3500 ft
Scattered Clouds 6500 ft
Mostly Cloudy 8000 ft
Heat Index 82 °F
Dew Point 69 °F
Humidity 71%
Rainfall 0.00 in
Snow Depth Not available.
UV 2.0 out of 12
Pollen 3.90 out of 12
Air Quality Not available.
Flu Activity Not available.
METAR KFWN 061653Z AUTO VRB05KT 10SM FEW035 SCT065 BKN080 27/19 A3016 RMK AO2 SLP211 T02670189 $

More Conditions Fewer Conditions

Pressure 30.16 in
Visibility 10.0 miles
Clouds Few 3500 ft
Scattered Clouds 6500 ft
Mostly Cloudy 8000 ft
Heat Index 82 °F
Dew Point 69 °F
Humidity 71%
Rainfall 0.00 in
Snow Depth Not available.
UV 2.0 out of 12
Pollen 3.90 out of 12
Air Quality Not available.
Flu Activity Not available.
METAR KFWN 061653Z AUTO VRB05KT 10SM FEW035 SCT065 BKN080 27/19 A3016 RMK AO2 SLP211 T02670189 $

More Conditions Fewer Conditions

10-Day Weather Forecast

×

Almanac

Astronomy

Jul. 06, 2015 Rise Set
Actual Time
Civil Twilight
Nautical Twilight
Astronomical Twilight
Moon
Length of Visible Light
Length of Day
Tomorrow will be .
, % of the Moon is Illuminated

Today's Extremes

State Highs State Lows

Community

WunderPhotos

Upload Photos

1,835,607 photos uploaded!

WunderBlogs® & News

Nearby

Air Quality

  Air Quality AQ Index Pollutant
Not available.

Snow Depth

Station Depth Elevation

Earthquake Activity

City Distance Mag. Time & Date
Minimum magnitude displayed is 2.5.

Coastal Water Temperatures

Place Temperature

Stations

Nearby Weather Stations

Station Location Temp. Windchill Dew Point Humidity Wind Precip. Elev Updated Type